sensor_id;sensor_type;location;lat;lon;timestamp;P1;durP1;ratioP1;P2;durP2;ratioP2
49972;SDS011;65693;49.798;10.968;2023-03-25T00:01:51;2.95;;;1.80;;
49972;SDS011;65693;49.798;10.968;2023-03-25T00:04:20;2.47;;;1.60;;
49972;SDS011;65693;49.798;10.968;2023-03-25T00:06:52;3.03;;;1.90;;
49972;SDS011;65693;49.798;10.968;2023-03-25T00:09:28;2.72;;;1.77;;
49972;SDS011;65693;49.798;10.968;2023-03-25T00:11:57;3.63;;;1.70;;
49972;SDS011;65693;49.798;10.968;2023-03-25T00:14:23;3.35;;;1.63;;
49972;SDS011;65693;49.798;10.968;2023-03-25T00:16:51;2.92;;;1.90;;
49972;SDS011;65693;49.798;10.968;2023-03-25T00:19:18;2.85;;;1.77;;
49972;SDS011;65693;49.798;10.968;2023-03-25T00:21:45;3.10;;;1.70;;
49972;SDS011;65693;49.798;10.968;2023-03-25T00:24:14;2.90;;;1.70;;
49972;SDS011;65693;49.798;10.968;2023-03-25T00:26:41;2.67;;;1.60;;
49972;SDS011;65693;49.798;10.968;2023-03-25T00:29:08;2.38;;;1.60;;
49972;SDS011;65693;49.798;10.968;2023-03-25T00:31:38;3.58;;;2.13;;
49972;SDS011;65693;49.798;10.968;2023-03-25T00:34:20;3.45;;;1.80;;
49972;SDS011;65693;49.798;10.968;2023-03-25T00:36:46;2.60;;;1.60;;
49972;SDS011;65693;49.798;10.968;2023-03-25T00:39:13;2.15;;;1.60;;
49972;SDS011;65693;49.798;10.968;2023-03-25T00:41:39;2.38;;;1.60;;
49972;SDS011;65693;49.798;10.968;2023-03-25T00:44:08;3.42;;;1.90;;
49972;SDS011;65693;49.798;10.968;2023-03-25T00:46:36;2.30;;;1.63;;
49972;SDS011;65693;49.798;10.968;2023-03-25T00:49:03;2.28;;;1.55;;
49972;SDS011;65693;49.798;10.968;2023-03-25T00:51:44;3.95;;;1.80;;
49972;SDS011;65693;49.798;10.968;2023-03-25T00:54:13;3.28;;;1.90;;
49972;SDS011;65693;49.798;10.968;2023-03-25T00:56:40;2.60;;;1.60;;
49972;SDS011;65693;49.798;10.968;2023-03-25T00:59:08;2.50;;;1.52;;
49972;SDS011;65693;49.798;10.968;2023-03-25T01:01:44;1.92;;;1.50;;
49972;SDS011;65693;49.798;10.968;2023-03-25T01:04:12;4.25;;;1.80;;
49972;SDS011;65693;49.798;10.968;2023-03-25T01:06:42;2.83;;;1.55;;
49972;SDS011;65693;49.798;10.968;2023-03-25T01:09:10;2.85;;;1.55;;
49972;SDS011;65693;49.798;10.968;2023-03-25T01:11:40;2.88;;;1.85;;
49972;SDS011;65693;49.798;10.968;2023-03-25T01:14:14;2.63;;;1.50;;
49972;SDS011;65693;49.798;10.968;2023-03-25T01:16:43;2.95;;;1.75;;
49972;SDS011;65693;49.798;10.968;2023-03-25T01:19:10;2.72;;;1.75;;
49972;SDS011;65693;49.798;10.968;2023-03-25T01:21:38;2.78;;;1.77;;
49972;SDS011;65693;49.798;10.968;2023-03-25T01:24:11;2.03;;;1.45;;
49972;SDS011;65693;49.798;10.968;2023-03-25T01:26:39;2.83;;;1.65;;
49972;SDS011;65693;49.798;10.968;2023-03-25T01:29:07;2.53;;;1.60;;
49972;SDS011;65693;49.798;10.968;2023-03-25T01:31:35;2.20;;;1.70;;
49972;SDS011;65693;49.798;10.968;2023-03-25T01:34:01;2.67;;;1.70;;
49972;SDS011;65693;49.798;10.968;2023-03-25T01:36:28;2.50;;;1.70;;
49972;SDS011;65693;49.798;10.968;2023-03-25T01:38:55;2.83;;;1.60;;
49972;SDS011;65693;49.798;10.968;2023-03-25T01:41:24;2.17;;;1.48;;
49972;SDS011;65693;49.798;10.968;2023-03-25T01:44:02;2.63;;;1.60;;
49972;SDS011;65693;49.798;10.968;2023-03-25T01:46:30;3.17;;;1.80;;
49972;SDS011;65693;49.798;10.968;2023-03-25T01:48:57;2.00;;;1.50;;
49972;SDS011;65693;49.798;10.968;2023-03-25T01:51:35;2.55;;;1.70;;
49972;SDS011;65693;49.798;10.968;2023-03-25T01:54:10;2.47;;;1.80;;
49972;SDS011;65693;49.798;10.968;2023-03-25T01:56:55;2.95;;;1.50;;
49972;SDS011;65693;49.798;10.968;2023-03-25T01:59:24;3.15;;;1.65;;
49972;SDS011;65693;49.798;10.968;2023-03-25T02:01:54;3.53;;;1.83;;
49972;SDS011;65693;49.798;10.968;2023-03-25T02:04:34;3.13;;;1.80;;
49972;SDS011;65693;49.798;10.968;2023-03-25T02:07:06;2.47;;;1.73;;
49972;SDS011;65693;49.798;10.968;2023-03-25T02:09:34;2.70;;;1.60;;
49972;SDS011;65693;49.798;10.968;2023-03-25T02:12:03;2.22;;;1.60;;
49972;SDS011;65693;49.798;10.968;2023-03-25T02:14:31;3.47;;;1.73;;
49972;SDS011;65693;49.798;10.968;2023-03-25T02:17:09;2.55;;;1.60;;
49972;SDS011;65693;49.798;10.968;2023-03-25T02:20:07;2.83;;;1.70;;
49972;SDS011;65693;49.798;10.968;2023-03-25T02:23:28;2.10;;;1.50;;
49972;SDS011;65693;49.798;10.968;2023-03-25T02:29:22;3.03;;;1.67;;
49972;SDS011;65693;49.798;10.968;2023-03-25T02:32:17;3.33;;;1.67;;
49972;SDS011;65693;49.798;10.968;2023-03-25T02:35:07;2.45;;;1.65;;
49972;SDS011;65693;49.798;10.968;2023-03-25T02:38:12;2.60;;;1.60;;
49972;SDS011;65693;49.798;10.968;2023-03-25T02:40:46;2.47;;;1.50;;
49972;SDS011;65693;49.798;10.968;2023-03-25T02:43:20;2.50;;;1.80;;
49972;SDS011;65693;49.798;10.968;2023-03-25T02:45:56;2.10;;;1.67;;
49972;SDS011;65693;49.798;10.968;2023-03-25T02:48:29;2.92;;;1.80;;
49972;SDS011;65693;49.798;10.968;2023-03-25T02:51:03;2.13;;;1.60;;
49972;SDS011;65693;49.798;10.968;2023-03-25T02:53:36;2.55;;;1.60;;
49972;SDS011;65693;49.798;10.968;2023-03-25T02:56:07;3.47;;;1.98;;
49972;SDS011;65693;49.798;10.968;2023-03-25T02:58:38;2.35;;;1.48;;
49972;SDS011;65693;49.798;10.968;2023-03-25T03:01:07;2.42;;;1.70;;
49972;SDS011;65693;49.798;10.968;2023-03-25T03:03:34;2.55;;;1.52;;
49972;SDS011;65693;49.798;10.968;2023-03-25T03:06:02;2.70;;;1.63;;
49972;SDS011;65693;49.798;10.968;2023-03-25T03:11:54;2.97;;;1.48;;
49972;SDS011;65693;49.798;10.968;2023-03-25T03:14:33;3.17;;;1.70;;
49972;SDS011;65693;49.798;10.968;2023-03-25T03:17:13;2.55;;;1.60;;
49972;SDS011;65693;49.798;10.968;2023-03-25T03:19:47;2.17;;;1.60;;
49972;SDS011;65693;49.798;10.968;2023-03-25T03:22:22;3.42;;;1.63;;
49972;SDS011;65693;49.798;10.968;2023-03-25T03:25:05;2.08;;;1.50;;
49972;SDS011;65693;49.798;10.968;2023-03-25T03:27:42;2.05;;;1.50;;
49972;SDS011;65693;49.798;10.968;2023-03-25T03:30:15;2.15;;;1.58;;
49972;SDS011;65693;49.798;10.968;2023-03-25T03:32:51;2.67;;;1.35;;
49972;SDS011;65693;49.798;10.968;2023-03-25T03:35:23;2.90;;;2.13;;
49972;SDS011;65693;49.798;10.968;2023-03-25T03:38:02;2.72;;;1.55;;
49972;SDS011;65693;49.798;10.968;2023-03-25T03:40:34;1.98;;;1.50;;
49972;SDS011;65693;49.798;10.968;2023-03-25T03:43:04;3.38;;;1.67;;
49972;SDS011;65693;49.798;10.968;2023-03-25T03:45:35;3.10;;;1.60;;
49972;SDS011;65693;49.798;10.968;2023-03-25T03:48:07;2.38;;;1.60;;
49972;SDS011;65693;49.798;10.968;2023-03-25T03:50:38;3.15;;;1.80;;
49972;SDS011;65693;49.798;10.968;2023-03-25T03:53:09;2.63;;;1.63;;
49972;SDS011;65693;49.798;10.968;2023-03-25T03:55:42;2.05;;;1.40;;
49972;SDS011;65693;49.798;10.968;2023-03-25T03:58:13;2.38;;;1.50;;
49972;SDS011;65693;49.798;10.968;2023-03-25T04:00:47;2.22;;;1.63;;
49972;SDS011;65693;49.798;10.968;2023-03-25T04:03:23;3.35;;;1.58;;
49972;SDS011;65693;49.798;10.968;2023-03-25T04:06:03;2.42;;;1.50;;
49972;SDS011;65693;49.798;10.968;2023-03-25T04:08:43;2.42;;;1.50;;
49972;SDS011;65693;49.798;10.968;2023-03-25T04:11:24;2.35;;;1.55;;
49972;SDS011;65693;49.798;10.968;2023-03-25T04:13:55;2.05;;;1.35;;
49972;SDS011;65693;49.798;10.968;2023-03-25T04:16:25;2.85;;;1.80;;
49972;SDS011;65693;49.798;10.968;2023-03-25T04:18:57;1.67;;;1.30;;
49972;SDS011;65693;49.798;10.968;2023-03-25T04:21:23;3.70;;;1.60;;
49972;SDS011;65693;49.798;10.968;2023-03-25T04:23:51;3.90;;;2.00;;
49972;SDS011;65693;49.798;10.968;2023-03-25T04:26:20;2.53;;;1.58;;
49972;SDS011;65693;49.798;10.968;2023-03-25T04:28:48;2.53;;;1.30;;
49972;SDS011;65693;49.798;10.968;2023-03-25T04:31:15;2.95;;;1.60;;
49972;SDS011;65693;49.798;10.968;2023-03-25T04:33:43;3.30;;;1.88;;
49972;SDS011;65693;49.798;10.968;2023-03-25T04:36:19;2.05;;;1.40;;
49972;SDS011;65693;49.798;10.968;2023-03-25T04:38:49;2.90;;;1.70;;
49972;SDS011;65693;49.798;10.968;2023-03-25T04:41:17;3.72;;;1.70;;
49972;SDS011;65693;49.798;10.968;2023-03-25T04:43:43;2.67;;;1.60;;
49972;SDS011;65693;49.798;10.968;2023-03-25T04:46:11;2.70;;;1.60;;
49972;SDS011;65693;49.798;10.968;2023-03-25T04:48:40;3.25;;;2.05;;
49972;SDS011;65693;49.798;10.968;2023-03-25T04:51:13;3.25;;;1.60;;
49972;SDS011;65693;49.798;10.968;2023-03-25T04:53:40;3.17;;;1.70;;
49972;SDS011;65693;49.798;10.968;2023-03-25T04:56:11;1.73;;;1.30;;
49972;SDS011;65693;49.798;10.968;2023-03-25T04:58:41;2.88;;;1.73;;
49972;SDS011;65693;49.798;10.968;2023-03-25T05:01:25;2.50;;;1.70;;
49972;SDS011;65693;49.798;10.968;2023-03-25T05:03:59;2.45;;;1.55;;
49972;SDS011;65693;49.798;10.968;2023-03-25T05:06:39;2.53;;;1.75;;
49972;SDS011;65693;49.798;10.968;2023-03-25T05:09:08;2.13;;;1.40;;
49972;SDS011;65693;49.798;10.968;2023-03-25T05:11:36;2.17;;;1.52;;
49972;SDS011;65693;49.798;10.968;2023-03-25T05:14:06;3.55;;;1.60;;
49972;SDS011;65693;49.798;10.968;2023-03-25T05:16:46;2.22;;;1.65;;
49972;SDS011;65693;49.798;10.968;2023-03-25T05:19:22;3.10;;;1.60;;
49972;SDS011;65693;49.798;10.968;2023-03-25T05:21:49;2.10;;;1.58;;
49972;SDS011;65693;49.798;10.968;2023-03-25T05:24:20;2.45;;;1.38;;
49972;SDS011;65693;49.798;10.968;2023-03-25T05:26:48;2.55;;;1.60;;
49972;SDS011;65693;49.798;10.968;2023-03-25T05:29:22;2.05;;;1.60;;
49972;SDS011;65693;49.798;10.968;2023-03-25T05:31:51;3.22;;;1.50;;
49972;SDS011;65693;49.798;10.968;2023-03-25T05:34:20;4.28;;;1.77;;
49972;SDS011;65693;49.798;10.968;2023-03-25T05:36:49;2.13;;;1.40;;
49972;SDS011;65693;49.798;10.968;2023-03-25T05:39:18;1.90;;;1.35;;
49972;SDS011;65693;49.798;10.968;2023-03-25T05:41:44;3.90;;;1.88;;
49972;SDS011;65693;49.798;10.968;2023-03-25T05:44:10;3.28;;;1.60;;
49972;SDS011;65693;49.798;10.968;2023-03-25T05:46:39;2.03;;;1.42;;
49972;SDS011;65693;49.798;10.968;2023-03-25T05:49:08;2.50;;;1.60;;
49972;SDS011;65693;49.798;10.968;2023-03-25T05:51:35;2.17;;;1.40;;
49972;SDS011;65693;49.798;10.968;2023-03-25T05:54:02;2.83;;;1.50;;
49972;SDS011;65693;49.798;10.968;2023-03-25T05:56:32;2.00;;;1.50;;
49972;SDS011;65693;49.798;10.968;2023-03-25T05:59:02;2.50;;;1.63;;
49972;SDS011;65693;49.798;10.968;2023-03-25T06:01:32;3.13;;;1.40;;
49972;SDS011;65693;49.798;10.968;2023-03-25T06:04:02;2.70;;;1.42;;
49972;SDS011;65693;49.798;10.968;2023-03-25T06:06:42;3.15;;;1.60;;
49972;SDS011;65693;49.798;10.968;2023-03-25T06:09:12;2.53;;;1.55;;
49972;SDS011;65693;49.798;10.968;2023-03-25T06:11:43;2.10;;;1.50;;
49972;SDS011;65693;49.798;10.968;2023-03-25T06:14:19;2.33;;;1.30;;
49972;SDS011;65693;49.798;10.968;2023-03-25T06:16:51;2.17;;;1.45;;
49972;SDS011;65693;49.798;10.968;2023-03-25T06:19:26;2.35;;;1.45;;
49972;SDS011;65693;49.798;10.968;2023-03-25T06:21:54;2.63;;;1.55;;
49972;SDS011;65693;49.798;10.968;2023-03-25T06:24:20;2.47;;;1.75;;
49972;SDS011;65693;49.798;10.968;2023-03-25T06:26:47;2.83;;;1.50;;
49972;SDS011;65693;49.798;10.968;2023-03-25T06:29:14;1.90;;;1.23;;
49972;SDS011;65693;49.798;10.968;2023-03-25T06:31:45;3.55;;;1.50;;
49972;SDS011;65693;49.798;10.968;2023-03-25T06:34:19;3.13;;;1.52;;
49972;SDS011;65693;49.798;10.968;2023-03-25T06:36:45;2.13;;;1.65;;
49972;SDS011;65693;49.798;10.968;2023-03-25T06:39:18;2.15;;;1.50;;
49972;SDS011;65693;49.798;10.968;2023-03-25T06:41:47;1.83;;;1.30;;
49972;SDS011;65693;49.798;10.968;2023-03-25T06:44:17;3.58;;;1.60;;
49972;SDS011;65693;49.798;10.968;2023-03-25T06:46:46;5.05;;;1.60;;
49972;SDS011;65693;49.798;10.968;2023-03-25T06:49:13;3.60;;;1.80;;
49972;SDS011;65693;49.798;10.968;2023-03-25T06:51:44;1.63;;;1.23;;
49972;SDS011;65693;49.798;10.968;2023-03-25T06:54:12;2.33;;;1.42;;
49972;SDS011;65693;49.798;10.968;2023-03-25T06:56:46;3.22;;;1.75;;
49972;SDS011;65693;49.798;10.968;2023-03-25T06:59:15;2.42;;;1.40;;
49972;SDS011;65693;49.798;10.968;2023-03-25T07:01:43;2.55;;;1.58;;
49972;SDS011;65693;49.798;10.968;2023-03-25T07:04:13;2.35;;;1.50;;
49972;SDS011;65693;49.798;10.968;2023-03-25T07:06:40;2.55;;;1.30;;
49972;SDS011;65693;49.798;10.968;2023-03-25T07:09:07;2.55;;;1.42;;
49972;SDS011;65693;49.798;10.968;2023-03-25T07:11:36;2.63;;;1.50;;
49972;SDS011;65693;49.798;10.968;2023-03-25T07:14:03;2.17;;;1.60;;
49972;SDS011;65693;49.798;10.968;2023-03-25T07:16:30;2.35;;;1.45;;
49972;SDS011;65693;49.798;10.968;2023-03-25T07:19:00;2.20;;;1.50;;
49972;SDS011;65693;49.798;10.968;2023-03-25T07:21:26;2.42;;;1.40;;
49972;SDS011;65693;49.798;10.968;2023-03-25T07:23:53;2.53;;;1.63;;
49972;SDS011;65693;49.798;10.968;2023-03-25T07:26:23;2.33;;;1.50;;
49972;SDS011;65693;49.798;10.968;2023-03-25T07:28:52;3.63;;;1.50;;
49972;SDS011;65693;49.798;10.968;2023-03-25T07:31:19;2.17;;;1.40;;
49972;SDS011;65693;49.798;10.968;2023-03-25T07:33:46;2.20;;;1.40;;
49972;SDS011;65693;49.798;10.968;2023-03-25T07:36:15;2.85;;;1.70;;
49972;SDS011;65693;49.798;10.968;2023-03-25T07:38:42;2.10;;;1.45;;
49972;SDS011;65693;49.798;10.968;2023-03-25T07:41:12;4.03;;;1.50;;
49972;SDS011;65693;49.798;10.968;2023-03-25T07:43:39;3.35;;;1.40;;
49972;SDS011;65693;49.798;10.968;2023-03-25T07:46:07;2.67;;;1.50;;
49972;SDS011;65693;49.798;10.968;2023-03-25T07:48:36;3.20;;;1.80;;
49972;SDS011;65693;49.798;10.968;2023-03-25T07:51:12;2.45;;;1.30;;
49972;SDS011;65693;49.798;10.968;2023-03-25T07:53:41;3.13;;;1.55;;
49972;SDS011;65693;49.798;10.968;2023-03-25T07:56:10;1.90;;;1.33;;
49972;SDS011;65693;49.798;10.968;2023-03-25T07:58:39;3.08;;;1.63;;
49972;SDS011;65693;49.798;10.968;2023-03-25T08:01:06;2.72;;;1.58;;
49972;SDS011;65693;49.798;10.968;2023-03-25T08:03:37;2.80;;;1.48;;
49972;SDS011;65693;49.798;10.968;2023-03-25T08:06:07;4.88;;;1.83;;
49972;SDS011;65693;49.798;10.968;2023-03-25T08:08:36;2.22;;;1.30;;
49972;SDS011;65693;49.798;10.968;2023-03-25T08:11:06;2.58;;;1.50;;
49972;SDS011;65693;49.798;10.968;2023-03-25T08:13:36;2.28;;;1.50;;
49972;SDS011;65693;49.798;10.968;2023-03-25T08:16:08;2.45;;;1.42;;
49972;SDS011;65693;49.798;10.968;2023-03-25T08:18:42;2.08;;;1.35;;
49972;SDS011;65693;49.798;10.968;2023-03-25T08:21:10;2.40;;;1.30;;
49972;SDS011;65693;49.798;10.968;2023-03-25T08:23:40;3.80;;;1.65;;
49972;SDS011;65693;49.798;10.968;2023-03-25T08:26:09;2.33;;;1.40;;
49972;SDS011;65693;49.798;10.968;2023-03-25T08:28:37;2.90;;;1.40;;
49972;SDS011;65693;49.798;10.968;2023-03-25T08:31:04;2.42;;;1.50;;
49972;SDS011;65693;49.798;10.968;2023-03-25T08:33:42;2.25;;;1.50;;
49972;SDS011;65693;49.798;10.968;2023-03-25T08:36:11;3.10;;;1.52;;
49972;SDS011;65693;49.798;10.968;2023-03-25T08:38:38;2.70;;;1.50;;
49972;SDS011;65693;49.798;10.968;2023-03-25T08:41:08;1.98;;;1.42;;
49972;SDS011;65693;49.798;10.968;2023-03-25T08:43:39;4.60;;;1.50;;
49972;SDS011;65693;49.798;10.968;2023-03-25T08:46:05;2.97;;;1.77;;
49972;SDS011;65693;49.798;10.968;2023-03-25T08:48:32;2.90;;;1.55;;
49972;SDS011;65693;49.798;10.968;2023-03-25T08:51:00;1.85;;;1.27;;
49972;SDS011;65693;49.798;10.968;2023-03-25T08:53:26;3.22;;;1.50;;
49972;SDS011;65693;49.798;10.968;2023-03-25T08:55:55;3.15;;;1.58;;
49972;SDS011;65693;49.798;10.968;2023-03-25T08:58:25;3.97;;;1.48;;
49972;SDS011;65693;49.798;10.968;2023-03-25T09:01:00;3.63;;;1.60;;
49972;SDS011;65693;49.798;10.968;2023-03-25T09:03:42;4.25;;;1.95;;
49972;SDS011;65693;49.798;10.968;2023-03-25T09:06:25;3.28;;;1.48;;
49972;SDS011;65693;49.798;10.968;2023-03-25T09:08:52;3.00;;;1.42;;
49972;SDS011;65693;49.798;10.968;2023-03-25T09:11:23;2.80;;;1.40;;
49972;SDS011;65693;49.798;10.968;2023-03-25T09:13:52;2.42;;;1.50;;
49972;SDS011;65693;49.798;10.968;2023-03-25T09:16:21;3.10;;;1.40;;
49972;SDS011;65693;49.798;10.968;2023-03-25T09:18:51;2.85;;;1.33;;
49972;SDS011;65693;49.798;10.968;2023-03-25T09:21:19;2.15;;;1.35;;
49972;SDS011;65693;49.798;10.968;2023-03-25T09:23:45;2.72;;;1.50;;
49972;SDS011;65693;49.798;10.968;2023-03-25T09:26:11;2.67;;;1.30;;
49972;SDS011;65693;49.798;10.968;2023-03-25T09:28:38;3.80;;;2.38;;
49972;SDS011;65693;49.798;10.968;2023-03-25T09:31:06;3.28;;;1.77;;
49972;SDS011;65693;49.798;10.968;2023-03-25T09:33:33;2.70;;;1.40;;
49972;SDS011;65693;49.798;10.968;2023-03-25T09:36:00;2.80;;;1.48;;
49972;SDS011;65693;49.798;10.968;2023-03-25T09:38:40;2.83;;;1.50;;
49972;SDS011;65693;49.798;10.968;2023-03-25T09:44:06;2.55;;;1.40;;
49972;SDS011;65693;49.798;10.968;2023-03-25T09:46:41;3.15;;;1.70;;
49972;SDS011;65693;49.798;10.968;2023-03-25T09:49:11;1.90;;;1.30;;
49972;SDS011;65693;49.798;10.968;2023-03-25T09:51:41;4.05;;;1.27;;
49972;SDS011;65693;49.798;10.968;2023-03-25T09:54:17;2.45;;;1.40;;
49972;SDS011;65693;49.798;10.968;2023-03-25T09:56:50;3.13;;;1.73;;
49972;SDS011;65693;49.798;10.968;2023-03-25T09:59:21;2.72;;;1.30;;
49972;SDS011;65693;49.798;10.968;2023-03-25T10:01:53;2.67;;;1.27;;
49972;SDS011;65693;49.798;10.968;2023-03-25T10:04:35;2.60;;;1.40;;
49972;SDS011;65693;49.798;10.968;2023-03-25T10:13:10;1.98;;;1.40;;
49972;SDS011;65693;49.798;10.968;2023-03-25T10:16:04;4.45;;;1.70;;
49972;SDS011;65693;49.798;10.968;2023-03-25T10:18:42;2.33;;;1.20;;
49972;SDS011;65693;49.798;10.968;2023-03-25T10:21:21;4.47;;;1.70;;
49972;SDS011;65693;49.798;10.968;2023-03-25T10:23:56;2.67;;;1.60;;
49972;SDS011;65693;49.798;10.968;2023-03-25T10:26:39;4.30;;;1.73;;
49972;SDS011;65693;49.798;10.968;2023-03-25T10:29:13;3.45;;;1.30;;
49972;SDS011;65693;49.798;10.968;2023-03-25T10:31:48;6.38;;;1.45;;
49972;SDS011;65693;49.798;10.968;2023-03-25T10:34:19;9.15;;;1.67;;
49972;SDS011;65693;49.798;10.968;2023-03-25T10:36:54;4.63;;;1.70;;
49972;SDS011;65693;49.798;10.968;2023-03-25T10:39:35;8.82;;;1.80;;
49972;SDS011;65693;49.798;10.968;2023-03-25T10:42:14;2.70;;;1.30;;
49972;SDS011;65693;49.798;10.968;2023-03-25T10:44:47;6.63;;;1.23;;
49972;SDS011;65693;49.798;10.968;2023-03-25T10:47:17;39.90;;;4.85;;
49972;SDS011;65693;49.798;10.968;2023-03-25T10:49:47;21.15;;;2.22;;
49972;SDS011;65693;49.798;10.968;2023-03-25T10:52:17;12.77;;;1.95;;
49972;SDS011;65693;49.798;10.968;2023-03-25T10:54:49;12.65;;;2.00;;
49972;SDS011;65693;49.798;10.968;2023-03-25T10:57:27;19.88;;;2.08;;
49972;SDS011;65693;49.798;10.968;2023-03-25T10:59:58;10.95;;;2.00;;
49972;SDS011;65693;49.798;10.968;2023-03-25T11:02:32;9.27;;;2.30;;
49972;SDS011;65693;49.798;10.968;2023-03-25T11:05:03;13.68;;;2.10;;
49972;SDS011;65693;49.798;10.968;2023-03-25T11:07:33;22.83;;;2.10;;
49972;SDS011;65693;49.798;10.968;2023-03-25T11:10:09;31.35;;;3.60;;
49972;SDS011;65693;49.798;10.968;2023-03-25T11:12:43;16.98;;;2.10;;
49972;SDS011;65693;49.798;10.968;2023-03-25T11:15:14;10.00;;;1.65;;
49972;SDS011;65693;49.798;10.968;2023-03-25T11:17:43;14.32;;;2.35;;
49972;SDS011;65693;49.798;10.968;2023-03-25T11:20:20;12.23;;;1.85;;
49972;SDS011;65693;49.798;10.968;2023-03-25T11:22:54;10.65;;;1.52;;
49972;SDS011;65693;49.798;10.968;2023-03-25T11:25:35;9.25;;;2.25;;
49972;SDS011;65693;49.798;10.968;2023-03-25T11:28:09;6.45;;;0.93;;
49972;SDS011;65693;49.798;10.968;2023-03-25T11:36:34;3.03;;;0.70;;
49972;SDS011;65693;49.798;10.968;2023-03-25T11:39:12;2.20;;;0.77;;
49972;SDS011;65693;49.798;10.968;2023-03-25T11:41:46;4.78;;;1.00;;
49972;SDS011;65693;49.798;10.968;2023-03-25T11:44:20;3.80;;;1.17;;
49972;SDS011;65693;49.798;10.968;2023-03-25T11:46:53;4.05;;;1.10;;
49972;SDS011;65693;49.798;10.968;2023-03-25T11:49:25;3.67;;;0.80;;
49972;SDS011;65693;49.798;10.968;2023-03-25T11:51:58;3.05;;;0.70;;
49972;SDS011;65693;49.798;10.968;2023-03-25T11:54:28;2.80;;;1.13;;
49972;SDS011;65693;49.798;10.968;2023-03-25T11:56:58;3.05;;;0.60;;
49972;SDS011;65693;49.798;10.968;2023-03-25T11:59:26;2.88;;;0.70;;
49972;SDS011;65693;49.798;10.968;2023-03-25T12:02:02;2.47;;;0.70;;
49972;SDS011;65693;49.798;10.968;2023-03-25T12:04:53;1.08;;;0.65;;
49972;SDS011;65693;49.798;10.968;2023-03-25T12:07:27;10.63;;;1.60;;
49972;SDS011;65693;49.798;10.968;2023-03-25T12:10:03;32.83;;;3.10;;
49972;SDS011;65693;49.798;10.968;2023-03-25T12:12:39;23.90;;;2.50;;
49972;SDS011;65693;49.798;10.968;2023-03-25T12:15:17;22.52;;;2.15;;
49972;SDS011;65693;49.798;10.968;2023-03-25T12:18:05;18.90;;;2.22;;
49972;SDS011;65693;49.798;10.968;2023-03-25T12:20:47;20.35;;;1.85;;
49972;SDS011;65693;49.798;10.968;2023-03-25T12:23:27;27.95;;;2.38;;
49972;SDS011;65693;49.798;10.968;2023-03-25T12:26:13;19.77;;;2.10;;
49972;SDS011;65693;49.798;10.968;2023-03-25T12:31:59;20.10;;;2.03;;
49972;SDS011;65693;49.798;10.968;2023-03-25T12:34:44;17.30;;;1.70;;
49972;SDS011;65693;49.798;10.968;2023-03-25T12:37:28;16.17;;;2.25;;
49972;SDS011;65693;49.798;10.968;2023-03-25T12:40:23;13.95;;;1.90;;
49972;SDS011;65693;49.798;10.968;2023-03-25T12:43:03;18.58;;;1.70;;
49972;SDS011;65693;49.798;10.968;2023-03-25T12:45:41;15.98;;;1.65;;
49972;SDS011;65693;49.798;10.968;2023-03-25T12:48:33;14.65;;;1.40;;
49972;SDS011;65693;49.798;10.968;2023-03-25T12:51:14;15.02;;;2.88;;
49972;SDS011;65693;49.798;10.968;2023-03-25T12:54:05;10.00;;;1.40;;
49972;SDS011;65693;49.798;10.968;2023-03-25T12:56:52;9.10;;;2.15;;
49972;SDS011;65693;49.798;10.968;2023-03-25T13:05:51;10.15;;;1.77;;
49972;SDS011;65693;49.798;10.968;2023-03-25T13:08:31;16.83;;;1.65;;
49972;SDS011;65693;49.798;10.968;2023-03-25T13:11:06;12.05;;;1.20;;
49972;SDS011;65693;49.798;10.968;2023-03-25T13:13:42;9.63;;;1.27;;
49972;SDS011;65693;49.798;10.968;2023-03-25T13:16:15;9.35;;;1.30;;
49972;SDS011;65693;49.798;10.968;2023-03-25T13:18:51;11.20;;;1.30;;
49972;SDS011;65693;49.798;10.968;2023-03-25T13:21:34;9.13;;;1.40;;
49972;SDS011;65693;49.798;10.968;2023-03-25T13:24:30;6.22;;;1.00;;
49972;SDS011;65693;49.798;10.968;2023-03-25T13:27:16;12.07;;;1.40;;
49972;SDS011;65693;49.798;10.968;2023-03-25T13:29:45;14.55;;;1.40;;
49972;SDS011;65693;49.798;10.968;2023-03-25T13:32:17;7.35;;;1.05;;
49972;SDS011;65693;49.798;10.968;2023-03-25T13:34:53;7.20;;;2.05;;
49972;SDS011;65693;49.798;10.968;2023-03-25T13:37:30;6.78;;;1.30;;
49972;SDS011;65693;49.798;10.968;2023-03-25T13:40:16;9.07;;;1.25;;
49972;SDS011;65693;49.798;10.968;2023-03-25T13:42:52;5.15;;;1.17;;
49972;SDS011;65693;49.798;10.968;2023-03-25T13:45:24;5.03;;;1.38;;
49972;SDS011;65693;49.798;10.968;2023-03-25T13:48:00;6.22;;;1.00;;
49972;SDS011;65693;49.798;10.968;2023-03-25T13:50:35;4.95;;;0.95;;
49972;SDS011;65693;49.798;10.968;2023-03-25T13:53:09;5.35;;;1.00;;
49972;SDS011;65693;49.798;10.968;2023-03-25T13:55:47;6.43;;;1.10;;
49972;SDS011;65693;49.798;10.968;2023-03-25T13:58:43;7.72;;;1.23;;
49972;SDS011;65693;49.798;10.968;2023-03-25T14:01:44;4.18;;;0.75;;
49972;SDS011;65693;49.798;10.968;2023-03-25T14:04:36;8.55;;;1.13;;
49972;SDS011;65693;49.798;10.968;2023-03-25T14:07:47;3.40;;;0.80;;
49972;SDS011;65693;49.798;10.968;2023-03-25T14:10:53;9.07;;;2.95;;
49972;SDS011;65693;49.798;10.968;2023-03-25T14:13:38;4.47;;;0.90;;
49972;SDS011;65693;49.798;10.968;2023-03-25T14:16:14;6.10;;;1.00;;
49972;SDS011;65693;49.798;10.968;2023-03-25T14:18:54;2.50;;;0.95;;
49972;SDS011;65693;49.798;10.968;2023-03-25T14:21:29;3.15;;;0.90;;
49972;SDS011;65693;49.798;10.968;2023-03-25T14:24:09;3.10;;;0.80;;
49972;SDS011;65693;49.798;10.968;2023-03-25T14:26:43;5.32;;;1.08;;
49972;SDS011;65693;49.798;10.968;2023-03-25T14:29:23;5.70;;;0.90;;
49972;SDS011;65693;49.798;10.968;2023-03-25T14:32:29;5.43;;;0.98;;
49972;SDS011;65693;49.798;10.968;2023-03-25T14:44:30;6.88;;;0.95;;
49972;SDS011;65693;49.798;10.968;2023-03-25T14:50:05;5.18;;;1.30;;
49972;SDS011;65693;49.798;10.968;2023-03-25T14:52:59;3.80;;;0.90;;
49972;SDS011;65693;49.798;10.968;2023-03-25T14:55:31;4.18;;;1.23;;
49972;SDS011;65693;49.798;10.968;2023-03-25T14:58:10;3.20;;;0.90;;
49972;SDS011;65693;49.798;10.968;2023-03-25T15:00:57;6.05;;;1.00;;
49972;SDS011;65693;49.798;10.968;2023-03-25T15:03:31;4.72;;;0.90;;
49972;SDS011;65693;49.798;10.968;2023-03-25T15:06:03;2.50;;;0.80;;
49972;SDS011;65693;49.798;10.968;2023-03-25T15:08:39;1.98;;;0.60;;
49972;SDS011;65693;49.798;10.968;2023-03-25T15:11:10;5.47;;;0.88;;
49972;SDS011;65693;49.798;10.968;2023-03-25T15:13:56;6.05;;;0.90;;
49972;SDS011;65693;49.798;10.968;2023-03-25T15:16:31;5.95;;;1.10;;
49972;SDS011;65693;49.798;10.968;2023-03-25T15:19:07;7.28;;;1.05;;
49972;SDS011;65693;49.798;10.968;2023-03-25T15:24:42;2.83;;;0.68;;
49972;SDS011;65693;49.798;10.968;2023-03-25T15:27:23;3.42;;;0.80;;
49972;SDS011;65693;49.798;10.968;2023-03-25T15:33:10;6.30;;;1.20;;
49972;SDS011;65693;49.798;10.968;2023-03-25T15:35:55;4.85;;;0.80;;
49972;SDS011;65693;49.798;10.968;2023-03-25T15:38:56;7.10;;;1.02;;
49972;SDS011;65693;49.798;10.968;2023-03-25T15:41:43;3.25;;;0.80;;
49972;SDS011;65693;49.798;10.968;2023-03-25T15:47:40;2.50;;;0.98;;
49972;SDS011;65693;49.798;10.968;2023-03-25T15:50:39;3.53;;;0.88;;
49972;SDS011;65693;49.798;10.968;2023-03-25T15:53:54;4.82;;;1.05;;
49972;SDS011;65693;49.798;10.968;2023-03-25T15:56:41;5.05;;;1.13;;
49972;SDS011;65693;49.798;10.968;2023-03-25T15:59:18;3.65;;;0.80;;
49972;SDS011;65693;49.798;10.968;2023-03-25T16:01:58;2.17;;;0.85;;
49972;SDS011;65693;49.798;10.968;2023-03-25T16:04:37;2.58;;;0.70;;
49972;SDS011;65693;49.798;10.968;2023-03-25T16:07:12;2.45;;;0.70;;